sensor_id;sensor_type;location;lat;lon;timestamp;P1;durP1;ratioP1;P2;durP2;ratioP2
38557;SDS011;24333;42.626;23.308;2023-04-24T01:48:01;21.20;;;8.55;;
38557;SDS011;24333;42.626;23.308;2023-04-24T01:53:02;16.48;;;7.60;;
38557;SDS011;24333;42.626;23.308;2023-04-24T01:55:28;16.15;;;7.57;;
38557;SDS011;24333;42.626;23.308;2023-04-24T01:57:54;16.40;;;8.10;;
38557;SDS011;24333;42.626;23.308;2023-04-24T02:00:22;17.17;;;8.60;;
38557;SDS011;24333;42.626;23.308;2023-04-24T02:09:25;12.05;;;6.88;;
38557;SDS011;24333;42.626;23.308;2023-04-24T02:14:21;16.15;;;8.32;;
38557;SDS011;24333;42.626;23.308;2023-04-24T02:16:48;13.82;;;7.28;;
38557;SDS011;24333;42.626;23.308;2023-04-24T02:19:38;13.75;;;7.70;;
38557;SDS011;24333;42.626;23.308;2023-04-24T02:22:33;14.55;;;7.38;;
38557;SDS011;24333;42.626;23.308;2023-04-24T02:25:00;18.48;;;7.75;;
38557;SDS011;24333;42.626;23.308;2023-04-24T02:27:26;13.82;;;7.03;;
38557;SDS011;24333;42.626;23.308;2023-04-24T02:29:51;14.30;;;7.45;;
38557;SDS011;24333;42.626;23.308;2023-04-24T02:32:16;13.05;;;7.05;;
38557;SDS011;24333;42.626;23.308;2023-04-24T02:34:42;13.07;;;6.88;;
38557;SDS011;24333;42.626;23.308;2023-04-24T02:37:19;17.25;;;7.15;;
38557;SDS011;24333;42.626;23.308;2023-04-24T02:40:51;15.52;;;6.25;;
38557;SDS011;24333;42.626;23.308;2023-04-24T02:43:17;12.10;;;6.57;;
38557;SDS011;24333;42.626;23.308;2023-04-24T02:45:42;12.10;;;6.53;;
38557;SDS011;24333;42.626;23.308;2023-04-24T02:48:08;11.13;;;6.45;;
38557;SDS011;24333;42.626;23.308;2023-04-24T02:50:33;12.15;;;6.10;;
38557;SDS011;24333;42.626;23.308;2023-04-24T02:52:58;17.67;;;7.85;;
38557;SDS011;24333;42.626;23.308;2023-04-24T02:55:33;14.05;;;6.30;;
38557;SDS011;24333;42.626;23.308;2023-04-24T02:57:59;13.45;;;6.10;;
38557;SDS011;24333;42.626;23.308;2023-04-24T03:00:24;10.75;;;6.07;;
38557;SDS011;24333;42.626;23.308;2023-04-24T03:02:50;11.80;;;5.82;;
38557;SDS011;24333;42.626;23.308;2023-04-24T03:10:55;11.10;;;5.55;;
38557;SDS011;24333;42.626;23.308;2023-04-24T03:13:24;15.00;;;6.40;;
38557;SDS011;24333;42.626;23.308;2023-04-24T03:15:49;12.77;;;6.68;;
38557;SDS011;24333;42.626;23.308;2023-04-24T03:18:15;13.93;;;6.97;;
38557;SDS011;24333;42.626;23.308;2023-04-24T03:20:40;14.23;;;7.10;;
38557;SDS011;24333;42.626;23.308;2023-04-24T03:23:06;9.45;;;6.25;;
38557;SDS011;24333;42.626;23.308;2023-04-24T03:25:40;11.18;;;5.93;;
38557;SDS011;24333;42.626;23.308;2023-04-24T03:28:07;11.55;;;6.38;;
38557;SDS011;24333;42.626;23.308;2023-04-24T03:30:33;11.10;;;6.22;;
38557;SDS011;24333;42.626;23.308;2023-04-24T03:32:58;10.65;;;6.05;;
38557;SDS011;24333;42.626;23.308;2023-04-24T03:41:39;10.70;;;6.40;;
38557;SDS011;24333;42.626;23.308;2023-04-24T03:44:05;12.77;;;6.30;;
38557;SDS011;24333;42.626;23.308;2023-04-24T03:46:30;13.73;;;6.57;;
38557;SDS011;24333;42.626;23.308;2023-04-24T03:48:56;10.75;;;5.95;;
38557;SDS011;24333;42.626;23.308;2023-04-24T03:51:21;12.80;;;5.85;;
38557;SDS011;24333;42.626;23.308;2023-04-24T03:53:47;15.35;;;6.07;;
38557;SDS011;24333;42.626;23.308;2023-04-24T03:56:19;10.77;;;6.20;;
38557;SDS011;24333;42.626;23.308;2023-04-24T03:58:47;10.85;;;5.82;;
38557;SDS011;24333;42.626;23.308;2023-04-24T04:01:12;12.75;;;6.85;;
38557;SDS011;24333;42.626;23.308;2023-04-24T04:03:38;12.25;;;6.38;;
38557;SDS011;24333;42.626;23.308;2023-04-24T04:09:12;11.93;;;6.90;;
38557;SDS011;24333;42.626;23.308;2023-04-24T04:11:37;12.10;;;6.10;;
38557;SDS011;24333;42.626;23.308;2023-04-24T04:14:03;14.85;;;6.78;;
38557;SDS011;24333;42.626;23.308;2023-04-24T04:16:28;12.02;;;5.93;;
38557;SDS011;24333;42.626;23.308;2023-04-24T04:18:54;9.00;;;5.78;;
38557;SDS011;24333;42.626;23.308;2023-04-24T04:21:20;12.10;;;6.18;;
38557;SDS011;24333;42.626;23.308;2023-04-24T04:23:48;10.73;;;6.25;;
38557;SDS011;24333;42.626;23.308;2023-04-24T04:26:30;18.17;;;6.47;;
38557;SDS011;24333;42.626;23.308;2023-04-24T04:28:57;10.48;;;6.25;;
38557;SDS011;24333;42.626;23.308;2023-04-24T04:31:23;11.63;;;6.65;;
38557;SDS011;24333;42.626;23.308;2023-04-24T04:57:21;13.63;;;7.53;;
38557;SDS011;24333;42.626;23.308;2023-04-24T05:00:10;20.27;;;6.40;;
38557;SDS011;24333;42.626;23.308;2023-04-24T05:02:36;12.88;;;6.85;;
38557;SDS011;24333;42.626;23.308;2023-04-24T05:05:06;13.57;;;7.05;;
38557;SDS011;24333;42.626;23.308;2023-04-24T05:07:34;17.15;;;7.43;;
38557;SDS011;24333;42.626;23.308;2023-04-24T05:15:57;12.32;;;6.50;;
38557;SDS011;24333;42.626;23.308;2023-04-24T05:18:24;11.50;;;7.20;;
38557;SDS011;24333;42.626;23.308;2023-04-24T05:20:50;15.23;;;7.10;;
38557;SDS011;24333;42.626;23.308;2023-04-24T05:23:18;15.63;;;8.15;;
38557;SDS011;24333;42.626;23.308;2023-04-24T05:25:57;17.63;;;7.85;;
38557;SDS011;24333;42.626;23.308;2023-04-24T07:45:32;14.65;;;5.45;;
38557;SDS011;24333;42.626;23.308;2023-04-24T07:48:01;11.63;;;5.20;;
38557;SDS011;24333;42.626;23.308;2023-04-24T07:50:26;10.30;;;4.70;;
38557;SDS011;24333;42.626;23.308;2023-04-24T07:52:52;13.60;;;5.85;;
38557;SDS011;24333;42.626;23.308;2023-04-24T07:55:17;8.48;;;4.85;;
38557;SDS011;24333;42.626;23.308;2023-04-24T07:57:43;12.00;;;5.13;;
38557;SDS011;24333;42.626;23.308;2023-04-24T08:00:08;10.40;;;6.18;;
38557;SDS011;24333;42.626;23.308;2023-04-24T08:02:35;7.93;;;4.75;;
38557;SDS011;24333;42.626;23.308;2023-04-24T08:05:00;9.10;;;4.82;;
38557;SDS011;24333;42.626;23.308;2023-04-24T08:10:01;12.18;;;5.53;;
38557;SDS011;24333;42.626;23.308;2023-04-24T08:12:28;11.88;;;5.30;;
38557;SDS011;24333;42.626;23.308;2023-04-24T08:14:54;11.35;;;4.93;;
38557;SDS011;24333;42.626;23.308;2023-04-24T08:17:20;10.60;;;4.90;;
38557;SDS011;24333;42.626;23.308;2023-04-24T08:19:45;13.30;;;5.07;;
38557;SDS011;24333;42.626;23.308;2023-04-24T08:22:28;8.15;;;4.90;;
38557;SDS011;24333;42.626;23.308;2023-04-24T08:28:42;17.67;;;5.03;;
38557;SDS011;24333;42.626;23.308;2023-04-24T08:31:07;16.98;;;6.35;;
38557;SDS011;24333;42.626;23.308;2023-04-24T08:33:33;15.60;;;6.40;;
38557;SDS011;24333;42.626;23.308;2023-04-24T08:36:04;11.13;;;5.53;;
38557;SDS011;24333;42.626;23.308;2023-04-24T08:38:30;9.50;;;5.68;;
38557;SDS011;24333;42.626;23.308;2023-04-24T08:43:49;12.13;;;6.07;;
38557;SDS011;24333;42.626;23.308;2023-04-24T08:46:16;8.90;;;5.00;;
38557;SDS011;24333;42.626;23.308;2023-04-24T08:48:42;9.70;;;5.47;;
38557;SDS011;24333;42.626;23.308;2023-04-24T08:57:42;11.40;;;5.32;;
38557;SDS011;24333;42.626;23.308;2023-04-24T09:00:10;10.45;;;5.68;;
38557;SDS011;24333;42.626;23.308;2023-04-24T09:02:36;12.15;;;5.95;;
38557;SDS011;24333;42.626;23.308;2023-04-24T09:05:02;13.80;;;5.80;;
38557;SDS011;24333;42.626;23.308;2023-04-24T09:07:30;14.77;;;5.82;;
38557;SDS011;24333;42.626;23.308;2023-04-24T09:10:01;22.33;;;9.38;;
38557;SDS011;24333;42.626;23.308;2023-04-24T09:12:43;12.25;;;6.28;;
38557;SDS011;24333;42.626;23.308;2023-04-24T09:15:17;22.95;;;8.70;;
38557;SDS011;24333;42.626;23.308;2023-04-24T09:17:46;22.10;;;7.30;;
38557;SDS011;24333;42.626;23.308;2023-04-24T09:20:12;23.08;;;9.70;;
38557;SDS011;24333;42.626;23.308;2023-04-24T09:22:38;15.65;;;5.57;;
38557;SDS011;24333;42.626;23.308;2023-04-24T09:25:04;9.30;;;5.55;;
38557;SDS011;24333;42.626;23.308;2023-04-24T09:30:40;12.48;;;6.25;;
38557;SDS011;24333;42.626;23.308;2023-04-24T09:33:12;7.45;;;4.85;;
38557;SDS011;24333;42.626;23.308;2023-04-24T09:35:56;19.77;;;5.28;;
38557;SDS011;24333;42.626;23.308;2023-04-24T09:38:30;9.90;;;5.32;;
38557;SDS011;24333;42.626;23.308;2023-04-24T09:41:04;14.65;;;5.47;;
38557;SDS011;24333;42.626;23.308;2023-04-24T09:43:30;12.88;;;4.95;;
38557;SDS011;24333;42.626;23.308;2023-04-24T09:48:47;9.18;;;4.68;;
38557;SDS011;24333;42.626;23.308;2023-04-24T09:51:13;9.82;;;4.97;;
38557;SDS011;24333;42.626;23.308;2023-04-24T09:53:44;13.23;;;5.65;;
38557;SDS011;24333;42.626;23.308;2023-04-24T10:02:00;10.23;;;4.13;;
38557;SDS011;24333;42.626;23.308;2023-04-24T10:04:26;10.15;;;4.53;;
38557;SDS011;24333;42.626;23.308;2023-04-24T10:06:53;12.20;;;4.60;;
38557;SDS011;24333;42.626;23.308;2023-04-24T10:09:21;17.00;;;5.20;;
38557;SDS011;24333;42.626;23.308;2023-04-24T10:11:49;10.23;;;4.25;;
38557;SDS011;24333;42.626;23.308;2023-04-24T10:14:16;9.73;;;4.32;;
38557;SDS011;24333;42.626;23.308;2023-04-24T10:16:43;11.68;;;6.25;;
38557;SDS011;24333;42.626;23.308;2023-04-24T10:19:12;7.38;;;4.25;;
38557;SDS011;24333;42.626;23.308;2023-04-24T10:21:42;12.02;;;5.32;;
38557;SDS011;24333;42.626;23.308;2023-04-24T10:24:17;8.25;;;3.88;;
38557;SDS011;24333;42.626;23.308;2023-04-24T10:26:59;13.32;;;4.28;;
38557;SDS011;24333;42.626;23.308;2023-04-24T10:39:16;11.20;;;3.95;;
38557;SDS011;24333;42.626;23.308;2023-04-24T10:41:46;11.07;;;3.90;;
38557;SDS011;24333;42.626;23.308;2023-04-24T10:44:15;6.40;;;3.90;;
38557;SDS011;24333;42.626;23.308;2023-04-24T10:46:44;6.25;;;2.83;;
38557;SDS011;24333;42.626;23.308;2023-04-24T10:49:32;7.18;;;4.00;;
38557;SDS011;24333;42.626;23.308;2023-04-24T10:52:02;6.05;;;3.30;;
38557;SDS011;24333;42.626;23.308;2023-04-24T10:54:41;6.10;;;3.17;;
38557;SDS011;24333;42.626;23.308;2023-04-24T11:00:32;10.70;;;3.50;;
38557;SDS011;24333;42.626;23.308;2023-04-24T11:02:47;5.45;;;2.95;;
38557;SDS011;24333;42.626;23.308;2023-04-24T11:05:16;5.68;;;3.08;;
38557;SDS011;24333;42.626;23.308;2023-04-24T11:08:14;5.03;;;2.90;;
38557;SDS011;24333;42.626;23.308;2023-04-24T11:10:45;5.75;;;2.88;;
38557;SDS011;24333;42.626;23.308;2023-04-24T11:13:16;4.25;;;2.92;;
38557;SDS011;24333;42.626;23.308;2023-04-24T11:15:42;9.77;;;3.55;;
38557;SDS011;24333;42.626;23.308;2023-04-24T11:18:14;5.30;;;3.47;;
38557;SDS011;24333;42.626;23.308;2023-04-24T16:47:34;17.63;;;12.35;;
38557;SDS011;24333;42.626;23.308;2023-04-24T16:50:10;28.38;;;18.75;;
38557;SDS011;24333;42.626;23.308;2023-04-24T16:52:45;22.98;;;10.48;;
38557;SDS011;24333;42.626;23.308;2023-04-24T16:55:37;22.33;;;9.88;;
38557;SDS011;24333;42.626;23.308;2023-04-24T16:58:33;16.95;;;7.97;;
38557;SDS011;24333;42.626;23.308;2023-04-24T17:00:59;11.68;;;6.72;;
38557;SDS011;24333;42.626;23.308;2023-04-24T17:03:25;11.25;;;6.63;;
38557;SDS011;24333;42.626;23.308;2023-04-24T17:05:51;14.27;;;6.78;;
38557;SDS011;24333;42.626;23.308;2023-04-24T17:08:17;17.35;;;9.52;;
38557;SDS011;24333;42.626;23.308;2023-04-24T17:13:37;17.38;;;9.02;;
38557;SDS011;24333;42.626;23.308;2023-04-24T17:31:57;12.32;;;7.53;;
38557;SDS011;24333;42.626;23.308;2023-04-24T17:34:29;26.38;;;10.82;;
38557;SDS011;24333;42.626;23.308;2023-04-24T17:37:42;32.70;;;11.65;;
38557;SDS011;24333;42.626;23.308;2023-04-24T17:40:20;22.48;;;10.35;;
38557;SDS011;24333;42.626;23.308;2023-04-24T17:43:32;17.05;;;8.98;;
38557;SDS011;24333;42.626;23.308;2023-04-24T17:46:01;14.35;;;7.95;;
38557;SDS011;24333;42.626;23.308;2023-04-24T18:17:04;7.72;;;4.20;;
38557;SDS011;24333;42.626;23.308;2023-04-24T18:19:51;7.85;;;4.10;;
38557;SDS011;24333;42.626;23.308;2023-04-24T18:22:34;8.38;;;3.58;;
38557;SDS011;24333;42.626;23.308;2023-04-24T18:30:33;12.77;;;6.18;;
38557;SDS011;24333;42.626;23.308;2023-04-24T18:33:05;7.40;;;4.10;;
38557;SDS011;24333;42.626;23.308;2023-04-24T18:35:59;13.82;;;6.45;;
38557;SDS011;24333;42.626;23.308;2023-04-24T18:38:37;10.73;;;5.35;;
38557;SDS011;24333;42.626;23.308;2023-04-24T18:41:15;8.77;;;4.70;;
38557;SDS011;24333;42.626;23.308;2023-04-24T18:44:09;11.43;;;5.53;;
38557;SDS011;24333;42.626;23.308;2023-04-24T18:46:49;11.98;;;6.20;;
38557;SDS011;24333;42.626;23.308;2023-04-24T18:49:36;10.52;;;5.15;;
38557;SDS011;24333;42.626;23.308;2023-04-24T18:52:03;7.45;;;4.50;;
38557;SDS011;24333;42.626;23.308;2023-04-24T18:57:04;5.85;;;3.65;;
38557;SDS011;24333;42.626;23.308;2023-04-24T18:59:30;8.27;;;2.83;;
38557;SDS011;24333;42.626;23.308;2023-04-24T19:01:56;5.10;;;2.00;;
38557;SDS011;24333;42.626;23.308;2023-04-24T19:04:21;2.22;;;1.40;;
38557;SDS011;24333;42.626;23.308;2023-04-24T19:06:47;2.35;;;1.55;;
38557;SDS011;24333;42.626;23.308;2023-04-24T19:09:12;3.33;;;1.92;;
38557;SDS011;24333;42.626;23.308;2023-04-24T19:17:43;3.75;;;2.00;;
38557;SDS011;24333;42.626;23.308;2023-04-24T19:20:11;8.32;;;4.10;;
38557;SDS011;24333;42.626;23.308;2023-04-24T19:22:37;6.80;;;3.88;;
38557;SDS011;24333;42.626;23.308;2023-04-24T22:58:26;4.50;;;2.22;;
38557;SDS011;24333;42.626;23.308;2023-04-24T23:00:52;5.72;;;2.30;;
38557;SDS011;24333;42.626;23.308;2023-04-24T23:03:18;4.78;;;2.15;;
38557;SDS011;24333;42.626;23.308;2023-04-24T23:05:44;5.35;;;2.08;;
38557;SDS011;24333;42.626;23.308;2023-04-24T23:08:16;5.75;;;2.80;;
38557;SDS011;24333;42.626;23.308;2023-04-24T23:16:53;11.77;;;5.63;;
38557;SDS011;24333;42.626;23.308;2023-04-24T23:19:19;12.55;;;6.25;;
38557;SDS011;24333;42.626;23.308;2023-04-24T23:21:46;16.42;;;7.05;;
38557;SDS011;24333;42.626;23.308;2023-04-24T23:24:14;14.88;;;7.45;;
